createdAt,value
2016-11-13T00:00:58.998Z,0
2016-11-13T00:02:07.691Z,0
2016-11-13T00:03:16.384Z,0
2016-11-13T00:04:25.071Z,0
2016-11-13T00:05:33.761Z,0
2016-11-13T00:06:42.447Z,0
2016-11-13T00:07:51.143Z,0
2016-11-13T00:08:59.842Z,0
2016-11-13T00:10:08.543Z,0
2016-11-13T00:11:17.230Z,0
2016-11-13T00:12:25.918Z,0
2016-11-13T00:13:34.640Z,0
2016-11-13T00:14:43.331Z,0
2016-11-13T00:15:52.020Z,0
2016-11-13T00:17:00.708Z,0
2016-11-13T00:18:09.710Z,0
2016-11-13T00:19:18.398Z,0
2016-11-13T00:20:27.087Z,0
2016-11-13T00:21:35.776Z,0
2016-11-13T00:22:44.489Z,0
2016-11-13T00:23:53.179Z,0
2016-11-13T00:25:01.866Z,0
2016-11-13T00:26:10.555Z,0
2016-11-13T00:27:19.245Z,0
2016-11-13T00:28:27.935Z,0
2016-11-13T00:29:36.628Z,0
2016-11-13T00:30:45.314Z,0
2016-11-13T00:31:54.012Z,0
2016-11-13T00:33:02.698Z,0
2016-11-13T00:34:11.390Z,0
2016-11-13T00:35:20.076Z,0
2016-11-13T00:36:28.762Z,0
2016-11-13T00:37:37.453Z,0
2016-11-13T00:38:46.139Z,0
2016-11-13T00:39:54.827Z,0
2016-11-13T00:41:03.517Z,0
2016-11-13T00:42:12.207Z,0
2016-11-13T00:43:20.893Z,0
2016-11-13T00:44:29.586Z,0
2016-11-13T00:45:38.276Z,0
2016-11-13T00:46:46.964Z,0
2016-11-13T00:47:55.657Z,0
2016-11-13T00:49:04.338Z,0
2016-11-13T00:50:13.085Z,0
2016-11-13T00:51:21.768Z,0
2016-11-13T00:52:30.455Z,0
2016-11-13T00:53:39.137Z,0
2016-11-13T00:54:47.830Z,0
2016-11-13T00:55:56.568Z,0
2016-11-13T00:57:05.252Z,0
2016-11-13T00:58:13.951Z,0
2016-11-13T00:59:22.644Z,0
2016-11-13T01:00:31.335Z,0
2016-11-13T01:01:40.025Z,0
2016-11-13T01:02:48.713Z,0
2016-11-13T01:03:57.416Z,0
2016-11-13T01:05:06.106Z,0
2016-11-13T01:06:14.802Z,0
2016-11-13T01:07:23.490Z,0
2016-11-13T01:08:32.186Z,0
2016-11-13T01:09:40.919Z,0
2016-11-13T01:10:49.610Z,0
2016-11-13T01:11:58.296Z,0
2016-11-13T01:13:06.984Z,0
2016-11-13T01:14:15.986Z,0
2016-11-13T01:15:24.677Z,0
2016-11-13T01:16:33.396Z,0
2016-11-13T01:17:42.089Z,0
2016-11-13T01:18:50.781Z,0
2016-11-13T01:19:59.481Z,0
2016-11-13T01:21:08.514Z,0
2016-11-13T01:22:17.200Z,0
2016-11-13T01:23:25.892Z,0
2016-11-13T01:24:34.589Z,0
2016-11-13T01:25:43.277Z,0
2016-11-13T01:26:51.963Z,0
2016-11-13T01:28:00.650Z,0
2016-11-13T01:29:09.371Z,0
2016-11-13T01:30:18.064Z,0
2016-11-13T01:31:26.757Z,0
2016-11-13T01:32:35.766Z,0
2016-11-13T01:33:44.457Z,0
2016-11-13T01:34:53.147Z,0
2016-11-13T01:36:01.871Z,0
2016-11-13T01:37:10.562Z,0
2016-11-13T01:38:19.253Z,0
2016-11-13T01:39:27.944Z,0
2016-11-13T01:40:36.632Z,0
2016-11-13T01:41:45.324Z,0
2016-11-13T01:42:54.014Z,0
2016-11-13T01:44:02.701Z,0
2016-11-13T01:45:11.394Z,0
2016-11-13T01:46:20.406Z,0
2016-11-13T01:47:29.098Z,0
2016-11-13T01:48:37.820Z,0
2016-11-13T01:49:46.510Z,0
2016-11-13T01:50:55.199Z,0
2016-11-13T01:52:03.892Z,0
2016-11-13T01:53:12.576Z,0
2016-11-13T01:54:21.298Z,0
2016-11-13T01:55:29.991Z,0
2016-11-13T01:56:38.685Z,0
2016-11-13T01:57:47.375Z,0
2016-11-13T01:58:56.096Z,0
2016-11-13T02:00:04.780Z,0
2016-11-13T02:01:13.471Z,0
2016-11-13T02:02:22.167Z,0
2016-11-13T02:03:30.867Z,0
2016-11-13T02:04:39.655Z,0
2016-11-13T02:05:48.363Z,0
2016-11-13T02:06:57.050Z,0
2016-11-13T02:08:05.740Z,0
2016-11-13T02:09:14.430Z,0
2016-11-13T02:10:23.122Z,0
2016-11-13T02:11:31.808Z,0
2016-11-13T02:12:40.533Z,0
2016-11-13T02:13:49.225Z,0
2016-11-13T02:14:57.951Z,0
2016-11-13T02:16:06.639Z,0
2016-11-13T02:17:15.333Z,0
2016-11-13T02:18:24.031Z,0
2016-11-13T02:19:32.717Z,0
2016-11-13T02:20:41.406Z,0
2016-11-13T02:21:50.096Z,0
2016-11-13T02:22:58.789Z,0
2016-11-13T02:24:07.478Z,0
2016-11-13T02:25:16.165Z,0
2016-11-13T02:26:24.854Z,0
2016-11-13T02:27:33.540Z,0
2016-11-13T02:28:42.541Z,0
2016-11-13T02:29:51.262Z,0
2016-11-13T02:30:59.951Z,0
2016-11-13T02:32:08.643Z,0
2016-11-13T02:33:17.329Z,0
2016-11-13T02:34:26.021Z,0
2016-11-13T02:35:34.710Z,0
2016-11-13T02:36:43.402Z,0
2016-11-13T02:37:52.095Z,0
2016-11-13T02:39:00.822Z,0
2016-11-13T02:40:09.514Z,0
2016-11-13T02:41:18.201Z,0
2016-11-13T02:42:26.888Z,0
2016-11-13T02:43:35.587Z,0
2016-11-13T02:44:44.292Z,0
2016-11-13T02:45:52.987Z,0
2016-11-13T02:47:01.715Z,0
2016-11-13T02:48:10.398Z,0
2016-11-13T02:49:19.083Z,0
2016-11-13T02:50:27.772Z,0
2016-11-13T02:51:36.494Z,0
2016-11-13T02:52:45.181Z,0
2016-11-13T02:53:53.896Z,0
2016-11-13T02:55:02.582Z,0
2016-11-13T02:56:11.278Z,0
2016-11-13T02:57:19.966Z,0
2016-11-13T02:58:28.654Z,0
2016-11-13T02:59:37.344Z,0
2016-11-13T03:00:46.031Z,0
2016-11-13T03:01:54.723Z,0
2016-11-13T03:03:03.413Z,0
2016-11-13T03:04:12.106Z,0
2016-11-13T03:05:20.829Z,0
2016-11-13T03:06:29.516Z,0
2016-11-13T03:07:38.352Z,0
2016-11-13T03:08:47.040Z,0
2016-11-13T03:09:55.734Z,0
2016-11-13T03:11:04.424Z,0
2016-11-13T03:12:13.112Z,0
2016-11-13T03:13:21.802Z,0
2016-11-13T03:14:30.493Z,0
2016-11-13T03:15:39.187Z,0
2016-11-13T03:16:47.910Z,0
2016-11-13T03:17:56.606Z,0
2016-11-13T03:19:05.647Z,0
2016-11-13T03:20:14.339Z,0
2016-11-13T03:21:23.021Z,0
2016-11-13T03:22:31.711Z,0
2016-11-13T03:23:40.396Z,0
2016-11-13T03:24:49.092Z,0
2016-11-13T03:25:57.782Z,0
2016-11-13T03:27:06.473Z,0
2016-11-13T03:28:15.163Z,0
2016-11-13T03:29:23.855Z,0
2016-11-13T03:30:32.543Z,0
2016-11-13T03:31:41.232Z,0
2016-11-13T03:32:49.923Z,0
2016-11-13T03:33:58.626Z,0
2016-11-13T03:35:07.314Z,0
2016-11-13T03:36:16.017Z,0
2016-11-13T03:37:24.701Z,0
2016-11-13T03:38:33.391Z,0
2016-11-13T03:39:42.079Z,0
2016-11-13T03:40:50.801Z,0
2016-11-13T03:41:59.491Z,0
2016-11-13T03:43:08.178Z,0
2016-11-13T03:44:16.867Z,0
2016-11-13T03:45:25.557Z,0
2016-11-13T03:46:34.243Z,0
2016-11-13T03:47:42.943Z,0
2016-11-13T03:48:51.632Z,0
2016-11-13T03:50:00.357Z,0
2016-11-13T03:51:09.046Z,0
2016-11-13T03:52:17.740Z,0
2016-11-13T03:53:26.428Z,0
2016-11-13T03:54:35.146Z,0
2016-11-13T03:55:43.849Z,0
2016-11-13T03:56:52.540Z,0
2016-11-13T03:58:01.231Z,0
2016-11-13T03:59:09.922Z,0
2016-11-13T04:00:18.604Z,0
2016-11-13T04:01:27.294Z,0
2016-11-13T04:02:35.983Z,0
2016-11-13T04:03:44.672Z,0
2016-11-13T04:04:53.361Z,0
2016-11-13T04:06:02.047Z,0
2016-11-13T04:07:10.733Z,0
2016-11-13T04:08:19.421Z,0
2016-11-13T04:09:28.113Z,0
2016-11-13T04:10:36.807Z,0
2016-11-13T04:11:45.532Z,0
2016-11-13T04:12:54.255Z,0
2016-11-13T04:14:02.943Z,0
2016-11-13T04:15:11.631Z,0
2016-11-13T04:16:20.319Z,0
2016-11-13T04:17:29.012Z,0
2016-11-13T04:18:37.735Z,0
2016-11-13T04:19:46.421Z,0
2016-11-13T04:20:55.108Z,0
2016-11-13T04:22:03.802Z,0
2016-11-13T04:23:12.493Z,0
2016-11-13T04:24:21.182Z,0
2016-11-13T04:25:29.866Z,0
2016-11-13T04:26:38.588Z,0
2016-11-13T04:27:47.278Z,0
2016-11-13T04:28:55.962Z,0
2016-11-13T04:30:04.648Z,0
2016-11-13T04:31:13.336Z,0
2016-11-13T04:32:22.026Z,0
2016-11-13T04:33:30.712Z,0
2016-11-13T04:34:39.399Z,0
2016-11-13T04:35:48.084Z,0
2016-11-13T04:36:56.776Z,0
2016-11-13T04:38:05.462Z,0
2016-11-13T04:39:14.184Z,0
2016-11-13T04:40:22.873Z,0
2016-11-13T04:41:31.570Z,0
2016-11-13T04:42:40.259Z,0
2016-11-13T04:43:48.944Z,0
2016-11-13T04:44:57.636Z,0
2016-11-13T04:46:06.331Z,0
2016-11-13T04:47:15.016Z,0
2016-11-13T04:48:23.703Z,0
2016-11-13T04:49:32.396Z,0
2016-11-13T04:50:41.079Z,0
2016-11-13T04:51:49.763Z,0
2016-11-13T04:52:58.456Z,0
2016-11-13T04:54:07.144Z,0
2016-11-13T04:55:15.831Z,0
2016-11-13T04:56:24.523Z,0
2016-11-13T04:57:33.215Z,0
2016-11-13T04:58:41.906Z,0
2016-11-13T04:59:50.591Z,0
2016-11-13T05:00:59.279Z,0
2016-11-13T05:02:07.971Z,0
2016-11-13T05:03:16.662Z,0
2016-11-13T05:04:25.352Z,0
2016-11-13T05:05:34.071Z,0
2016-11-13T05:06:42.760Z,0
2016-11-13T05:07:51.447Z,0
2016-11-13T05:09:00.144Z,0
2016-11-13T05:10:08.834Z,0
2016-11-13T05:11:17.533Z,0
2016-11-13T05:12:26.216Z,0
2016-11-13T05:13:34.903Z,0
2016-11-13T05:14:43.599Z,0
2016-11-13T05:15:52.297Z,0
2016-11-13T05:17:00.990Z,0
2016-11-13T05:18:09.989Z,0
2016-11-13T05:19:18.684Z,0
2016-11-13T05:20:27.376Z,0
2016-11-13T05:21:36.061Z,0
2016-11-13T05:22:44.752Z,0
2016-11-13T05:23:53.472Z,0
2016-11-13T05:25:02.160Z,0
2016-11-13T05:26:10.855Z,0
2016-11-13T05:27:19.545Z,0
2016-11-13T05:28:28.235Z,0
2016-11-13T05:29:36.932Z,0
2016-11-13T05:30:45.620Z,0
2016-11-13T05:31:54.313Z,0
2016-11-13T05:33:03.011Z,0
2016-11-13T05:34:11.737Z,0
2016-11-13T05:35:20.425Z,0
2016-11-13T05:36:29.114Z,0
2016-11-13T05:37:37.801Z,0
2016-11-13T05:38:46.494Z,0
2016-11-13T05:39:55.178Z,0
2016-11-13T05:41:03.871Z,0
2016-11-13T05:42:12.554Z,0
2016-11-13T05:43:21.241Z,0
2016-11-13T05:44:29.939Z,0
2016-11-13T05:45:38.637Z,0
2016-11-13T05:46:47.335Z,0
2016-11-13T05:47:56.023Z,0
2016-11-13T05:49:04.714Z,0
2016-11-13T05:50:13.398Z,0
2016-11-13T05:51:22.090Z,0
2016-11-13T05:52:30.788Z,0
2016-11-13T05:53:39.481Z,0
2016-11-13T05:54:48.209Z,0
2016-11-13T05:55:56.906Z,0
2016-11-13T05:57:05.596Z,0
2016-11-13T05:58:14.289Z,0
2016-11-13T05:59:22.985Z,0
2016-11-13T06:00:31.673Z,0
2016-11-13T06:01:40.704Z,0
2016-11-13T06:02:49.393Z,0
2016-11-13T06:03:58.086Z,0
2016-11-13T06:05:06.778Z,0
2016-11-13T06:06:15.468Z,0
2016-11-13T06:07:24.162Z,0
2016-11-13T06:08:32.850Z,0
2016-11-13T06:09:41.543Z,0
2016-11-13T06:10:50.239Z,0
2016-11-13T06:11:58.928Z,0
2016-11-13T06:13:07.619Z,0
2016-11-13T06:14:16.307Z,0
2016-11-13T06:15:24.995Z,0
2016-11-13T06:16:33.684Z,0
2016-11-13T06:17:42.372Z,0
2016-11-13T06:18:51.061Z,0
2016-11-13T06:19:59.751Z,0
2016-11-13T06:21:08.436Z,0
2016-11-13T06:22:17.125Z,0
2016-11-13T06:23:25.812Z,0
2016-11-13T06:24:34.513Z,0
2016-11-13T06:25:43.201Z,0
2016-11-13T06:26:51.883Z,0
2016-11-13T06:28:00.570Z,0
2016-11-13T06:29:09.262Z,0
2016-11-13T06:30:17.949Z,0
2016-11-13T06:31:26.643Z,0
2016-11-13T06:32:35.327Z,0
2016-11-13T06:33:44.017Z,0
2016-11-13T06:34:52.707Z,0
2016-11-13T06:36:01.392Z,0
2016-11-13T06:37:10.079Z,0
2016-11-13T06:38:18.768Z,0
2016-11-13T06:39:27.455Z,0
2016-11-13T06:40:36.136Z,0
2016-11-13T06:41:44.825Z,0
2016-11-13T06:42:53.521Z,0
2016-11-13T06:44:02.211Z,0
2016-11-13T06:45:10.898Z,0
2016-11-13T06:46:19.587Z,0
2016-11-13T06:47:28.284Z,0
2016-11-13T06:48:36.977Z,0
2016-11-13T06:49:45.668Z,0
2016-11-13T06:50:54.360Z,0
2016-11-13T06:52:03.046Z,0
2016-11-13T06:53:11.768Z,0
2016-11-13T06:54:20.454Z,0
2016-11-13T06:55:29.138Z,0
2016-11-13T06:56:37.838Z,0
2016-11-13T06:57:46.524Z,0
2016-11-13T06:58:55.217Z,0
2016-11-13T07:00:03.937Z,0
2016-11-13T07:01:12.629Z,0
2016-11-13T07:02:21.313Z,0
2016-11-13T07:03:30.010Z,5
2016-11-13T07:04:38.703Z,5
2016-11-13T07:05:47.396Z,5
2016-11-13T07:06:56.084Z,5
2016-11-13T07:08:04.770Z,5
2016-11-13T07:09:13.455Z,5
2016-11-13T07:10:22.142Z,5
2016-11-13T07:11:30.835Z,5
2016-11-13T07:12:39.530Z,5
2016-11-13T07:13:48.218Z,5
2016-11-13T07:14:56.909Z,10
2016-11-13T07:16:05.600Z,10
2016-11-13T07:17:14.319Z,10
2016-11-13T07:18:23.008Z,10
2016-11-13T07:19:31.701Z,10
2016-11-13T07:20:40.384Z,10
2016-11-13T07:21:49.072Z,10
2016-11-13T07:22:57.758Z,15
2016-11-13T07:24:06.450Z,15
2016-11-13T07:25:15.137Z,15
2016-11-13T07:26:23.828Z,20
2016-11-13T07:27:32.520Z,20
2016-11-13T07:28:41.206Z,20
2016-11-13T07:29:49.894Z,25
2016-11-13T07:30:58.582Z,25
2016-11-13T07:32:07.269Z,25
2016-11-13T07:33:15.953Z,30
2016-11-13T07:34:24.643Z,30
2016-11-13T07:35:33.330Z,30
2016-11-13T07:36:42.017Z,35
2016-11-13T07:37:50.705Z,35
2016-11-13T07:38:59.397Z,35
2016-11-13T07:40:08.085Z,40
2016-11-13T07:41:16.776Z,40
2016-11-13T07:42:25.458Z,40
2016-11-13T07:43:34.458Z,45
2016-11-13T07:44:43.462Z,45
2016-11-13T07:45:52.148Z,45
2016-11-13T07:47:00.855Z,50
2016-11-13T07:48:09.857Z,50
2016-11-13T07:49:18.552Z,50
2016-11-13T07:50:27.246Z,55
2016-11-13T07:51:35.931Z,55
2016-11-13T07:52:44.623Z,55
2016-11-13T07:53:53.319Z,55
2016-11-13T07:55:02.004Z,60
2016-11-13T07:56:10.693Z,60
2016-11-13T07:57:19.380Z,60
2016-11-13T07:58:28.069Z,65
2016-11-13T07:59:36.760Z,65
2016-11-13T08:00:45.458Z,65
2016-11-13T08:01:54.160Z,70
2016-11-13T08:03:02.850Z,70
2016-11-13T08:04:11.860Z,70
2016-11-13T08:05:20.583Z,75
2016-11-13T08:06:29.274Z,75
2016-11-13T08:07:37.965Z,80
2016-11-13T08:08:46.657Z,75
2016-11-13T08:09:55.342Z,75
2016-11-13T08:11:04.042Z,80
2016-11-13T08:12:12.727Z,80
2016-11-13T08:13:21.417Z,85
2016-11-13T08:14:30.112Z,85
2016-11-13T08:15:38.804Z,90
2016-11-13T08:16:47.491Z,90
2016-11-13T08:17:56.177Z,90
2016-11-13T08:19:04.865Z,95
2016-11-13T08:20:13.560Z,95
2016-11-13T08:21:22.247Z,95
2016-11-13T08:22:31.270Z,100
2016-11-13T08:23:39.962Z,100
2016-11-13T08:24:48.648Z,105
2016-11-13T08:25:57.336Z,105
2016-11-13T08:27:06.024Z,110
2016-11-13T08:28:14.716Z,115
2016-11-13T08:29:23.398Z,115
2016-11-13T08:30:32.089Z,120
2016-11-13T08:31:40.789Z,125
2016-11-13T08:32:49.481Z,130
2016-11-13T08:33:58.167Z,125
2016-11-13T08:35:06.860Z,130
2016-11-13T08:36:15.544Z,130
2016-11-13T08:37:24.230Z,130
2016-11-13T08:38:32.925Z,130
2016-11-13T08:39:41.615Z,135
2016-11-13T08:40:50.308Z,140
2016-11-13T08:41:58.992Z,140
2016-11-13T08:43:07.714Z,150
2016-11-13T08:44:16.403Z,150
2016-11-13T08:45:25.093Z,150
2016-11-13T08:46:33.777Z,150
2016-11-13T08:47:42.467Z,150
2016-11-13T08:48:51.153Z,155
2016-11-13T08:49:59.841Z,155
2016-11-13T08:51:08.581Z,160
2016-11-13T08:52:17.270Z,160
2016-11-13T08:53:25.960Z,165
2016-11-13T08:54:34.700Z,165
2016-11-13T08:55:43.398Z,165
2016-11-13T08:56:52.095Z,170
2016-11-13T08:58:00.789Z,175
2016-11-13T08:59:09.485Z,175
2016-11-13T09:00:18.172Z,180
2016-11-13T09:01:26.861Z,180
2016-11-13T09:02:35.556Z,185
2016-11-13T09:03:44.245Z,185
2016-11-13T09:04:52.940Z,195
2016-11-13T09:06:01.626Z,190
2016-11-13T09:07:10.332Z,195
2016-11-13T09:08:19.021Z,195
2016-11-13T09:09:27.710Z,195
2016-11-13T09:10:36.403Z,200
2016-11-13T09:11:45.092Z,200
2016-11-13T09:12:53.781Z,200
2016-11-13T09:14:02.512Z,200
2016-11-13T09:15:11.210Z,200
2016-11-13T09:16:19.905Z,200
2016-11-13T09:17:28.593Z,205
2016-11-13T09:18:37.287Z,205
2016-11-13T09:19:45.974Z,205
2016-11-13T09:20:54.666Z,200
2016-11-13T09:22:03.354Z,200
2016-11-13T09:23:12.357Z,195
2016-11-13T09:24:21.055Z,200
2016-11-13T09:25:29.780Z,200
2016-11-13T09:26:38.471Z,200
2016-11-13T09:27:47.480Z,200
2016-11-13T09:28:56.171Z,200
2016-11-13T09:30:04.868Z,200
2016-11-13T09:31:13.565Z,200
2016-11-13T09:32:22.266Z,200
2016-11-13T09:33:30.957Z,200
2016-11-13T09:34:39.645Z,200
2016-11-13T09:35:48.330Z,200
2016-11-13T09:36:57.019Z,200
2016-11-13T09:38:05.718Z,200
2016-11-13T09:39:14.407Z,195
2016-11-13T09:40:23.101Z,195
2016-11-13T09:41:32.108Z,195
2016-11-13T09:42:40.800Z,190
2016-11-13T09:43:49.496Z,190
2016-11-13T09:44:58.191Z,185
2016-11-13T09:46:06.876Z,185
2016-11-13T09:47:15.566Z,185
2016-11-13T09:48:24.575Z,180
2016-11-13T09:49:33.270Z,185
2016-11-13T09:50:41.964Z,190
2016-11-13T09:51:50.689Z,195
2016-11-13T09:52:59.413Z,195
2016-11-13T09:54:08.105Z,195
2016-11-13T09:55:16.801Z,195
2016-11-13T09:56:25.495Z,195
2016-11-13T09:57:34.181Z,195
2016-11-13T09:58:42.867Z,200
2016-11-13T09:59:51.557Z,200
2016-11-13T10:01:00.246Z,200
2016-11-13T10:02:08.940Z,200
2016-11-13T10:03:17.944Z,205
2016-11-13T10:04:26.629Z,215
2016-11-13T10:05:35.319Z,215
2016-11-13T10:06:44.011Z,225
2016-11-13T10:08:24.780Z,230
2016-11-13T10:09:33.469Z,230
2016-11-13T10:10:42.154Z,235
2016-11-13T10:11:50.845Z,235
2016-11-13T10:12:59.533Z,235
2016-11-13T10:14:08.234Z,235
2016-11-13T10:15:17.258Z,235
2016-11-13T10:16:25.953Z,240
2016-11-13T10:17:34.652Z,255
2016-11-13T10:18:43.341Z,265
2016-11-13T10:19:52.030Z,250
2016-11-13T10:21:00.731Z,245
2016-11-13T10:22:09.425Z,240
2016-11-13T10:23:18.435Z,245
2016-11-13T10:24:27.127Z,245
2016-11-13T10:25:35.817Z,245
2016-11-13T10:26:44.504Z,260
2016-11-13T10:27:53.207Z,250
2016-11-13T10:29:01.963Z,280
2016-11-13T10:30:10.659Z,280
2016-11-13T10:31:19.348Z,275
2016-11-13T10:32:28.044Z,280
2016-11-13T10:33:36.738Z,295
2016-11-13T10:34:45.436Z,305
2016-11-13T10:35:54.161Z,345
2016-11-13T10:37:02.857Z,345
2016-11-13T10:38:11.551Z,330
2016-11-13T10:39:20.242Z,290
2016-11-13T10:40:28.933Z,305
2016-11-13T10:41:37.629Z,310
2016-11-13T10:42:46.326Z,325
2016-11-13T10:43:55.055Z,315
2016-11-13T10:45:03.748Z,270
2016-11-13T10:46:12.453Z,245
2016-11-13T10:47:21.145Z,245
2016-11-13T10:48:29.838Z,240
2016-11-13T10:49:38.533Z,245
2016-11-13T10:50:47.227Z,250
2016-11-13T10:51:55.924Z,250
2016-11-13T10:53:04.620Z,250
2016-11-13T10:54:13.312Z,255
2016-11-13T10:55:22.018Z,255
2016-11-13T10:56:30.709Z,260
2016-11-13T10:57:39.440Z,270
2016-11-13T10:58:48.140Z,280
2016-11-13T10:59:56.877Z,285
2016-11-13T11:01:05.570Z,275
2016-11-13T11:02:14.264Z,270
2016-11-13T11:03:22.959Z,265
2016-11-13T11:04:31.654Z,265
2016-11-13T11:05:40.352Z,265
2016-11-13T11:06:49.055Z,265
2016-11-13T11:07:57.849Z,260
2016-11-13T11:09:06.543Z,260
2016-11-13T11:10:15.241Z,260
2016-11-13T11:11:23.939Z,265
2016-11-13T11:12:32.633Z,265
2016-11-13T11:13:41.330Z,265
2016-11-13T11:14:50.025Z,265
2016-11-13T11:15:58.726Z,270
2016-11-13T11:17:07.738Z,275
2016-11-13T11:18:16.438Z,270
2016-11-13T11:19:25.126Z,265
2016-11-13T11:20:33.852Z,260
2016-11-13T11:21:42.548Z,260
2016-11-13T11:22:51.244Z,260
2016-11-13T11:23:59.975Z,255
2016-11-13T11:25:08.671Z,255
2016-11-13T11:26:17.368Z,255
2016-11-13T11:27:26.382Z,255
2016-11-13T11:28:35.074Z,255
2016-11-13T11:29:43.800Z,250
2016-11-13T11:30:52.806Z,245
2016-11-13T11:32:01.499Z,245
2016-11-13T11:33:10.193Z,240
2016-11-13T11:34:19.202Z,240
2016-11-13T11:35:27.893Z,235
2016-11-13T11:36:36.591Z,230
2016-11-13T11:37:45.291Z,230
2016-11-13T11:38:54.020Z,230
2016-11-13T11:40:02.752Z,235
2016-11-13T11:41:11.448Z,235
2016-11-13T11:42:20.140Z,240
2016-11-13T11:43:28.862Z,235
2016-11-13T11:44:37.554Z,230
2016-11-13T11:45:46.245Z,240
2016-11-13T11:46:54.948Z,245
2016-11-13T11:48:03.639Z,240
2016-11-13T11:49:12.367Z,245
2016-11-13T11:50:21.060Z,235
2016-11-13T11:51:29.767Z,230
2016-11-13T11:52:38.462Z,225
2016-11-13T11:53:47.476Z,225
2016-11-13T11:54:56.172Z,220
2016-11-13T11:56:04.865Z,220
2016-11-13T11:57:13.559Z,220
2016-11-13T11:58:22.577Z,220
2016-11-13T11:59:31.286Z,215
2016-11-13T12:00:40.287Z,215
2016-11-13T12:01:49.307Z,215
2016-11-13T12:02:57.995Z,210
2016-11-13T12:04:06.696Z,210
2016-11-13T12:05:15.386Z,205
2016-11-13T12:06:24.083Z,210
2016-11-13T12:07:32.782Z,205
2016-11-13T12:08:41.474Z,205
2016-11-13T12:09:50.180Z,205
2016-11-13T12:10:59.185Z,205
2016-11-13T12:12:07.894Z,205
2016-11-13T12:13:16.586Z,205
2016-11-13T12:14:25.275Z,200
2016-11-13T12:15:33.968Z,200
2016-11-13T12:16:42.663Z,195
2016-11-13T12:17:51.357Z,195
2016-11-13T12:19:00.398Z,195
2016-11-13T12:20:09.133Z,190
2016-11-13T12:21:17.829Z,185
2016-11-13T12:22:26.550Z,185
2016-11-13T12:23:35.252Z,180
2016-11-13T12:24:43.943Z,175
2016-11-13T12:25:52.635Z,175
2016-11-13T12:27:01.324Z,190
2016-11-13T12:28:10.016Z,225
2016-11-13T12:29:19.026Z,240
2016-11-13T12:30:27.724Z,240
2016-11-13T12:31:36.450Z,215
2016-11-13T12:32:45.142Z,200
2016-11-13T12:33:53.840Z,180
2016-11-13T12:35:02.546Z,175
2016-11-13T12:36:12.335Z,165
2016-11-13T12:37:21.023Z,160
2016-11-13T12:38:29.716Z,160
2016-11-13T12:39:38.438Z,160
2016-11-13T12:40:47.132Z,155
2016-11-13T12:41:55.825Z,155
2016-11-13T12:43:04.518Z,155
2016-11-13T12:44:13.212Z,150
2016-11-13T12:45:21.903Z,145
2016-11-13T12:46:30.597Z,145
2016-11-13T12:47:39.285Z,140
2016-11-13T12:48:47.983Z,140
2016-11-13T12:49:56.673Z,135
2016-11-13T12:51:05.369Z,135
2016-11-13T12:52:14.062Z,135
2016-11-13T12:53:22.759Z,135
2016-11-13T12:54:31.765Z,130
2016-11-13T12:55:40.463Z,130
2016-11-13T12:56:49.189Z,130
2016-11-13T12:57:57.879Z,130
2016-11-13T12:59:06.581Z,130
2016-11-13T13:00:15.297Z,125
2016-11-13T13:01:23.990Z,120
2016-11-13T13:02:32.685Z,115
2016-11-13T13:03:41.375Z,110
2016-11-13T13:04:50.064Z,110
2016-11-13T13:05:58.767Z,110
2016-11-13T13:07:07.470Z,110
2016-11-13T13:08:16.164Z,110
2016-11-13T13:09:24.863Z,110
2016-11-13T13:10:33.560Z,110
2016-11-13T13:11:42.256Z,110
2016-11-13T13:12:50.949Z,105
2016-11-13T13:13:59.639Z,105
2016-11-13T13:15:08.643Z,100
2016-11-13T13:16:17.339Z,100
2016-11-13T13:17:26.038Z,95
2016-11-13T13:18:34.728Z,95
2016-11-13T13:19:43.421Z,90
2016-11-13T13:20:52.107Z,90
2016-11-13T13:22:00.792Z,90
2016-11-13T13:23:09.482Z,90
2016-11-13T13:24:18.177Z,90
2016-11-13T13:25:26.875Z,90
2016-11-13T13:26:35.568Z,85
2016-11-13T13:27:44.258Z,85
2016-11-13T13:28:52.952Z,80
2016-11-13T13:30:01.641Z,80
2016-11-13T13:31:10.339Z,80
2016-11-13T13:32:19.375Z,80
2016-11-13T13:33:28.065Z,80
2016-11-13T13:34:36.754Z,75
2016-11-13T13:35:45.442Z,75
2016-11-13T13:36:54.170Z,70
2016-11-13T13:38:02.860Z,70
2016-11-13T13:39:11.554Z,70
2016-11-13T13:40:20.246Z,70
2016-11-13T13:41:28.935Z,70
2016-11-13T13:42:37.631Z,70
2016-11-13T13:43:46.320Z,70
2016-11-13T13:44:55.014Z,65
2016-11-13T13:46:03.710Z,65
2016-11-13T13:47:12.435Z,65
2016-11-13T13:48:21.133Z,60
2016-11-13T13:49:29.825Z,60
2016-11-13T13:50:38.519Z,60
2016-11-13T13:51:47.209Z,60
2016-11-13T13:52:55.901Z,55
2016-11-13T13:54:04.591Z,55
2016-11-13T13:55:13.311Z,55
2016-11-13T13:56:21.998Z,55
2016-11-13T13:57:31.004Z,55
2016-11-13T13:58:39.697Z,55
2016-11-13T13:59:48.394Z,50
2016-11-13T14:00:57.082Z,50
2016-11-13T14:02:05.775Z,50
2016-11-13T14:03:14.469Z,45
2016-11-13T14:04:23.162Z,45
2016-11-13T14:05:31.857Z,45
2016-11-13T14:06:40.588Z,45
2016-11-13T14:07:49.281Z,45
2016-11-13T14:08:57.976Z,45
2016-11-13T14:10:06.684Z,40
2016-11-13T14:11:15.379Z,40
2016-11-13T14:12:24.066Z,40
2016-11-13T14:13:32.759Z,35
2016-11-13T14:14:41.451Z,35
2016-11-13T14:15:50.152Z,35
2016-11-13T14:16:58.845Z,30
2016-11-13T14:18:07.540Z,30
2016-11-13T14:19:16.232Z,30
2016-11-13T14:20:24.926Z,30
2016-11-13T14:21:33.621Z,25
2016-11-13T14:22:42.320Z,25
2016-11-13T14:23:51.009Z,25
2016-11-13T14:24:59.704Z,25
2016-11-13T14:26:08.395Z,20
2016-11-13T14:27:17.088Z,20
2016-11-13T14:28:25.783Z,20
2016-11-13T14:29:34.472Z,20
2016-11-13T14:30:43.164Z,20
2016-11-13T14:31:51.860Z,20
2016-11-13T14:33:00.555Z,20
2016-11-13T14:34:09.243Z,15
2016-11-13T14:35:17.935Z,15
2016-11-13T14:36:26.629Z,15
2016-11-13T14:37:35.319Z,15
2016-11-13T14:38:44.014Z,15
2016-11-13T14:39:52.708Z,15
2016-11-13T14:41:01.398Z,10
2016-11-13T14:42:10.096Z,10
2016-11-13T14:43:18.789Z,10
2016-11-13T14:44:27.479Z,10
2016-11-13T14:45:36.168Z,10
2016-11-13T14:46:44.852Z,10
2016-11-13T14:47:53.545Z,10
2016-11-13T14:49:02.232Z,5
2016-11-13T14:50:10.923Z,5
2016-11-13T14:51:19.614Z,5
2016-11-13T14:52:28.308Z,5
2016-11-13T14:53:36.995Z,5
2016-11-13T14:54:45.692Z,5
2016-11-13T14:55:54.382Z,5
2016-11-13T14:57:03.086Z,5
2016-11-13T14:58:11.776Z,5
2016-11-13T14:59:20.470Z,0
2016-11-13T15:00:29.167Z,0
2016-11-13T15:01:37.872Z,0
2016-11-13T15:02:46.877Z,0
2016-11-13T15:03:55.569Z,0
2016-11-13T15:05:04.265Z,0
2016-11-13T15:06:12.957Z,0
2016-11-13T15:07:21.658Z,0
2016-11-13T15:08:30.350Z,0
2016-11-13T15:09:39.047Z,0
2016-11-13T15:10:47.738Z,0
2016-11-13T15:11:56.436Z,0
2016-11-13T15:13:05.126Z,0
2016-11-13T15:14:13.815Z,0
2016-11-13T15:15:22.503Z,0
2016-11-13T15:16:31.221Z,0
2016-11-13T15:17:39.952Z,0
2016-11-13T15:18:48.646Z,0
2016-11-13T15:19:57.337Z,0
2016-11-13T15:21:06.030Z,0
2016-11-13T15:22:14.720Z,0
2016-11-13T15:23:23.416Z,0
2016-11-13T15:24:32.110Z,0
2016-11-13T15:25:40.805Z,0
2016-11-13T15:26:49.512Z,0
2016-11-13T15:27:58.212Z,0
2016-11-13T15:29:06.905Z,0
2016-11-13T15:30:15.599Z,0
2016-11-13T15:31:24.293Z,0
2016-11-13T15:32:32.987Z,0
2016-11-13T15:33:41.679Z,0
2016-11-13T15:34:50.379Z,0
2016-11-13T15:35:59.073Z,0
2016-11-13T15:37:08.119Z,0
2016-11-13T15:38:16.815Z,0
2016-11-13T15:39:25.509Z,0
2016-11-13T15:40:34.194Z,0
2016-11-13T15:41:42.885Z,0
2016-11-13T15:42:51.573Z,0
2016-11-13T15:44:00.269Z,0
2016-11-13T15:45:08.962Z,0
2016-11-13T15:46:17.658Z,0
2016-11-13T15:47:26.363Z,0
2016-11-13T15:48:35.059Z,0
2016-11-13T15:49:43.792Z,0
2016-11-13T15:50:52.490Z,0
2016-11-13T15:52:01.175Z,0
2016-11-13T15:53:09.876Z,0
2016-11-13T15:54:18.569Z,0
2016-11-13T15:55:27.261Z,0
2016-11-13T15:56:35.952Z,0
2016-11-13T15:57:44.641Z,0
2016-11-13T15:58:53.329Z,0
2016-11-13T16:00:02.060Z,0
2016-11-13T16:01:10.758Z,0
2016-11-13T16:02:19.450Z,0
2016-11-13T16:03:28.144Z,0
2016-11-13T16:04:36.833Z,0
2016-11-13T16:05:45.529Z,0
2016-11-13T16:06:54.220Z,0
2016-11-13T16:08:02.910Z,0
2016-11-13T16:09:11.605Z,0
2016-11-13T16:10:20.295Z,0
2016-11-13T16:11:28.989Z,0
2016-11-13T16:12:37.676Z,0
2016-11-13T16:13:46.363Z,0
2016-11-13T16:14:55.061Z,0
2016-11-13T16:16:03.751Z,0
2016-11-13T16:17:12.444Z,0
2016-11-13T16:18:21.133Z,0
2016-11-13T16:19:29.823Z,0
2016-11-13T16:20:38.510Z,0
2016-11-13T16:21:47.204Z,0
2016-11-13T16:22:55.931Z,0
2016-11-13T16:24:04.619Z,0
2016-11-13T16:25:13.314Z,0
2016-11-13T16:26:22.001Z,0
2016-11-13T16:27:30.699Z,0
2016-11-13T16:28:39.391Z,0
2016-11-13T16:29:48.083Z,0